Accueil
METAR-TAF:

METAR-TAF

Aéroports :

Aéroport de Maribor

Maribor, Slovénie

latitude: 46-29N, longitude: 015-41E, altitude: 264 m

Observation

Le bulletin a été fait il y a 31 minutes, à 00:00 UTC
Vent calme
Température 17°C
Humidité 88%
Pression 1014 hPa
Visibilité 10 km ou plus

METAR: LJMB 040000Z AUTO 00000KT 9999 NSC 17/15 Q1014

Heure: 02:31 (00:31 UTC)

Prévision

Le bulletin a été fait il y a 1 heure et 31 minutes, à 23:00 UTC
Prévision valable du 04 à 00 UTC au 04 à 24 UTC
Vent 5 kt de sud
Visibilité 10 km ou plus
Quelques nuages à une hauteur de 4500 ft
Probabilité 30% :
Temporairement
du 04 à 00 UTC au 04 à 15 UTC
Quelques nuages à une hauteur de 3500 ft, Cumulus congestus.
Nuages fragmentés à une hauteur de 4000 ft
averses de pluie

TAF: LJMB 032300Z 0400/0424 17005KT 9999 FEW045 PROB30 TEMPO 0400/0415 SHRA FEW035TCU BKN040

Observations et prévisions météorologiques de plus de 4000 aéroports (messages METAR et TAF).

Les stations disponibles sont représentées par des disques jaunes et rouges sur la carte.

Passer la souris dessus pour voir le nom de la station.

Cliquer dessus pour voir les observations et prévisions météorologiques.

Pour changer de carte: cliquez sur les boutons verts avec une croix noire pour zoomer, sur le bouton vert avec un tiret pour effectuer un zoom arrière, ou sur les flèches vertes pour les cartes adjacentes.


METAR-TAF: